sensor_id;sensor_type;location;lat;lon;timestamp;pressure;altitude;pressure_sealevel;temperature;humidity
35011;BME280;21205;37.378;127.098;2023-03-01T00:02:20;100544.47;;;23.68;37.50
35011;BME280;21205;37.378;127.098;2023-03-01T00:04:50;100515.69;;;23.48;37.68
35011;BME280;21205;37.378;127.098;2023-03-01T00:07:20;100531.59;;;23.63;37.56
35011;BME280;21205;37.378;127.098;2023-03-01T00:09:50;100529.59;;;23.64;37.34
35011;BME280;21205;37.378;127.098;2023-03-01T00:12:20;100526.78;;;23.64;37.50
35011;BME280;21205;37.378;127.098;2023-03-01T00:14:49;100516.31;;;23.61;37.02
35011;BME280;21205;37.378;127.098;2023-03-01T00:17:19;100531.19;;;23.65;36.91
35011;BME280;21205;37.378;127.098;2023-03-01T00:19:49;100521.91;;;23.61;36.80
35011;BME280;21205;37.378;127.098;2023-03-01T00:22:18;100529.97;;;23.62;36.81
35011;BME280;21205;37.378;127.098;2023-03-01T00:24:48;100525.16;;;23.63;36.72
35011;BME280;21205;37.378;127.098;2023-03-01T00:27:18;100520.31;;;23.59;36.92
35011;BME280;21205;37.378;127.098;2023-03-01T00:29:47;100519.91;;;23.61;36.48
35011;BME280;21205;37.378;127.098;2023-03-01T00:32:17;100520.31;;;23.59;36.59
35011;BME280;21205;37.378;127.098;2023-03-01T00:34:47;100519.50;;;23.59;36.27
35011;BME280;21205;37.378;127.098;2023-03-01T00:37:23;100517.50;;;23.59;36.16
35011;BME280;21205;37.378;127.098;2023-03-01T00:39:53;100531.53;;;23.59;36.51
35011;BME280;21205;37.378;127.098;2023-03-01T00:42:23;100513.94;;;23.63;36.33
35011;BME280;21205;37.378;127.098;2023-03-01T00:44:52;100514.31;;;23.61;35.98
35011;BME280;21205;37.378;127.098;2023-03-01T00:47:22;100515.13;;;23.62;35.93
35011;BME280;21205;37.378;127.098;2023-03-01T00:49:52;100486.69;;;23.40;35.92
35011;BME280;21205;37.378;127.098;2023-03-01T00:52:21;100515.06;;;23.58;35.88
35011;BME280;21205;37.378;127.098;2023-03-01T00:54:52;100489.94;;;23.42;35.69
35011;BME280;21205;37.378;127.098;2023-03-01T00:57:22;100511.44;;;23.57;35.79
35011;BME280;21205;37.378;127.098;2023-03-01T00:59:52;100513.06;;;23.58;35.82
35011;BME280;21205;37.378;127.098;2023-03-01T01:02:22;100510.69;;;23.61;35.70
35011;BME280;21205;37.378;127.098;2023-03-01T01:04:52;100509.06;;;23.59;35.47
35011;BME280;21205;37.378;127.098;2023-03-01T01:07:24;100507.88;;;23.61;35.55
35011;BME280;21205;37.378;127.098;2023-03-01T01:09:54;100507.47;;;23.58;35.32
35011;BME280;21205;37.378;127.098;2023-03-01T01:12:24;100505.47;;;23.59;35.37
35011;BME280;21205;37.378;127.098;2023-03-01T01:14:53;100507.88;;;23.61;35.16
35011;BME280;21205;37.378;127.098;2023-03-01T01:17:23;100514.69;;;23.59;35.02
35011;BME280;21205;37.378;127.098;2023-03-01T01:19:53;100496.66;;;23.61;35.32
35011;BME280;21205;37.378;127.098;2023-03-01T01:22:22;100502.69;;;23.63;35.16
35011;BME280;21205;37.378;127.098;2023-03-01T01:24:52;100506.69;;;23.62;34.94
35011;BME280;21205;37.378;127.098;2023-03-01T01:27:22;100507.50;;;23.62;34.69
35011;BME280;21205;37.378;127.098;2023-03-01T01:29:53;100506.69;;;23.62;34.90
35011;BME280;21205;37.378;127.098;2023-03-01T01:32:23;100503.09;;;23.61;34.62
35011;BME280;21205;37.378;127.098;2023-03-01T01:34:53;100507.50;;;23.62;34.75
35011;BME280;21205;37.378;127.098;2023-03-01T01:37:23;100505.47;;;23.59;34.69
35011;BME280;21205;37.378;127.098;2023-03-01T01:40:01;100499.47;;;23.61;34.81
35011;BME280;21205;37.378;127.098;2023-03-01T01:42:33;100503.47;;;23.59;34.78
35011;BME280;21205;37.378;127.098;2023-03-01T01:45:34;100510.69;;;23.61;34.34
35011;BME280;21205;37.378;127.098;2023-03-01T01:48:10;100510.75;;;23.64;34.34
35011;BME280;21205;37.378;127.098;2023-03-01T01:50:41;100502.69;;;23.63;34.53
35011;BME280;21205;37.378;127.098;2023-03-01T01:53:16;100497.91;;;23.63;34.59
35011;BME280;21205;37.378;127.098;2023-03-01T01:55:56;100497.91;;;23.63;34.13
35011;BME280;21205;37.378;127.098;2023-03-01T01:58:29;100499.94;;;23.66;34.23
35011;BME280;21205;37.378;127.098;2023-03-01T02:00:59;100502.75;;;23.66;34.26
35011;BME280;21205;37.378;127.098;2023-03-01T02:03:32;100504.38;;;23.67;33.89
35011;BME280;21205;37.378;127.098;2023-03-01T02:06:37;100506.38;;;23.67;34.23
35011;BME280;21205;37.378;127.098;2023-03-01T02:09:13;100465.56;;;23.46;34.26
35011;BME280;21205;37.378;127.098;2023-03-01T02:11:44;100493.97;;;23.68;34.01
35011;BME280;21205;37.378;127.098;2023-03-01T02:14:15;100495.56;;;23.69;34.11
35011;BME280;21205;37.378;127.098;2023-03-01T02:16:45;100494.38;;;23.70;33.88
35011;BME280;21205;37.378;127.098;2023-03-01T02:28:19;100507.22;;;23.71;34.00
35011;BME280;21205;37.378;127.098;2023-03-01T02:30:50;100502.44;;;23.71;33.71
35011;BME280;21205;37.378;127.098;2023-03-01T02:33:39;100498.38;;;23.69;33.80
35011;BME280;21205;37.378;127.098;2023-03-01T02:36:21;100461.56;;;23.47;33.69
35011;BME280;21205;37.378;127.098;2023-03-01T02:38:53;100486.28;;;23.65;34.05
35011;BME280;21205;37.378;127.098;2023-03-01T02:41:27;100486.72;;;23.67;33.66
35011;BME280;21205;37.378;127.098;2023-03-01T02:43:58;100475.50;;;23.67;33.89
35011;BME280;21205;37.378;127.098;2023-03-01T02:46:28;100483.50;;;23.65;33.95
35011;BME280;21205;37.378;127.098;2023-03-01T02:48:59;100481.88;;;23.64;34.02
35011;BME280;21205;37.378;127.098;2023-03-01T02:54:56;100481.91;;;23.67;33.95
35011;BME280;21205;37.378;127.098;2023-03-01T02:57:29;100480.69;;;23.65;33.81
35011;BME280;21205;37.378;127.098;2023-03-01T03:00:12;100481.09;;;23.67;33.44
35011;BME280;21205;37.378;127.098;2023-03-01T03:02:49;100483.50;;;23.65;33.66
35011;BME280;21205;37.378;127.098;2023-03-01T03:05:25;100483.91;;;23.67;33.82
35011;BME280;21205;37.378;127.098;2023-03-01T03:07:56;100483.91;;;23.67;33.67
35011;BME280;21205;37.378;127.098;2023-03-01T03:10:32;100457.63;;;23.52;33.78
35011;BME280;21205;37.378;127.098;2023-03-01T03:13:05;100488.34;;;23.68;33.52
35011;BME280;21205;37.378;127.098;2023-03-01T03:15:36;100491.16;;;23.68;33.69
35011;BME280;21205;37.378;127.098;2023-03-01T03:18:13;100477.13;;;23.68;33.26
35011;BME280;21205;37.378;127.098;2023-03-01T03:20:43;100469.88;;;23.67;33.38
35011;BME280;21205;37.378;127.098;2023-03-01T03:23:14;100446.34;;;23.48;33.41
35011;BME280;21205;37.378;127.098;2023-03-01T03:25:43;100469.06;;;23.66;33.41
35011;BME280;21205;37.378;127.098;2023-03-01T03:28:13;100465.84;;;23.64;33.16
35011;BME280;21205;37.378;127.098;2023-03-01T03:30:45;100452.22;;;23.66;33.36
35011;BME280;21205;37.378;127.098;2023-03-01T03:33:15;100449.44;;;23.66;33.51
35011;BME280;21205;37.378;127.098;2023-03-01T03:35:47;100446.19;;;23.64;33.21
35011;BME280;21205;37.378;127.098;2023-03-01T03:38:19;100434.59;;;23.66;33.14
35011;BME280;21205;37.378;127.098;2023-03-01T03:41:03;100438.56;;;23.65;33.26
35011;BME280;21205;37.378;127.098;2023-03-01T03:43:35;100432.19;;;23.68;33.26
35011;BME280;21205;37.378;127.098;2023-03-01T03:46:05;100426.16;;;23.66;33.14
35011;BME280;21205;37.378;127.098;2023-03-01T03:48:44;100423.53;;;23.76;33.30
35011;BME280;21205;37.378;127.098;2023-03-01T03:51:15;100423.91;;;23.75;33.47
35011;BME280;21205;37.378;127.098;2023-03-01T03:53:46;100417.94;;;23.80;33.16
35011;BME280;21205;37.378;127.098;2023-03-01T03:56:15;100387.19;;;23.61;33.64
35011;BME280;21205;37.378;127.098;2023-03-01T03:58:45;100416.00;;;23.84;33.18
35011;BME280;21205;37.378;127.098;2023-03-01T04:01:15;100416.84;;;23.88;33.13
35011;BME280;21205;37.378;127.098;2023-03-01T04:03:45;100397.19;;;23.88;33.31
35011;BME280;21205;37.378;127.098;2023-03-01T04:06:17;100399.66;;;23.93;33.22
35011;BME280;21205;37.378;127.098;2023-03-01T04:08:47;100385.28;;;23.98;33.08
35011;BME280;21205;37.378;127.098;2023-03-01T04:11:19;100386.88;;;23.99;33.08
35011;BME280;21205;37.378;127.098;2023-03-01T04:13:57;100380.09;;;24.00;33.35
35011;BME280;21205;37.378;127.098;2023-03-01T04:16:27;100374.09;;;24.02;33.09
35011;BME280;21205;37.378;127.098;2023-03-01T04:18:57;100377.31;;;24.04;33.10
35011;BME280;21205;37.378;127.098;2023-03-01T04:21:29;100373.75;;;24.07;33.07
35011;BME280;21205;37.378;127.098;2023-03-01T04:23:59;100371.75;;;24.07;33.15
35011;BME280;21205;37.378;127.098;2023-03-01T04:26:28;100368.22;;;24.14;33.21
35011;BME280;21205;37.378;127.098;2023-03-01T04:28:59;100355.03;;;24.18;32.86
35011;BME280;21205;37.378;127.098;2023-03-01T04:31:29;100355.88;;;24.22;32.73
35011;BME280;21205;37.378;127.098;2023-03-01T04:33:58;100348.66;;;24.25;32.85
35011;BME280;21205;37.378;127.098;2023-03-01T04:36:29;100356.72;;;24.26;33.05
35011;BME280;21205;37.378;127.098;2023-03-01T04:38:59;100354.28;;;24.25;33.03
35011;BME280;21205;37.378;127.098;2023-03-01T04:41:40;100349.84;;;24.24;32.86
35011;BME280;21205;37.378;127.098;2023-03-01T04:44:12;100354.69;;;24.27;32.67
35011;BME280;21205;37.378;127.098;2023-03-01T04:46:42;100342.72;;;24.30;32.88
35011;BME280;21205;37.378;127.098;2023-03-01T04:49:11;100346.75;;;24.32;33.08
35011;BME280;21205;37.378;127.098;2023-03-01T04:51:41;100343.13;;;24.32;32.87
35011;BME280;21205;37.378;127.098;2023-03-01T04:54:11;100345.16;;;24.31;32.63
35011;BME280;21205;37.378;127.098;2023-03-01T04:56:41;100349.56;;;24.32;33.15
35011;BME280;21205;37.378;127.098;2023-03-01T04:59:11;100338.38;;;24.36;32.82
35011;BME280;21205;37.378;127.098;2023-03-01T05:01:41;100335.97;;;24.38;33.11
35011;BME280;21205;37.378;127.098;2023-03-01T05:04:11;100328.72;;;24.37;32.74
35011;BME280;21205;37.378;127.098;2023-03-01T05:06:42;100334.03;;;24.42;32.69
35011;BME280;21205;37.378;127.098;2023-03-01T05:09:12;100327.22;;;24.43;32.78
35011;BME280;21205;37.378;127.098;2023-03-01T05:11:42;100321.59;;;24.43;32.41
35011;BME280;21205;37.378;127.098;2023-03-01T05:14:11;100336.06;;;24.45;32.84
35011;BME280;21205;37.378;127.098;2023-03-01T05:16:41;100330.03;;;24.43;32.91
35011;BME280;21205;37.378;127.098;2023-03-01T05:19:11;100322.81;;;24.45;32.74
35011;BME280;21205;37.378;127.098;2023-03-01T05:21:44;100330.84;;;24.47;32.49
35011;BME280;21205;37.378;127.098;2023-03-01T05:24:34;100330.44;;;24.45;32.75
35011;BME280;21205;37.378;127.098;2023-03-01T05:27:05;100336.09;;;24.48;32.69
35011;BME280;21205;37.378;127.098;2023-03-01T05:29:35;100338.47;;;24.46;32.57
35011;BME280;21205;37.378;127.098;2023-03-01T05:32:04;100328.44;;;24.45;32.76
35011;BME280;21205;37.378;127.098;2023-03-01T05:34:35;100354.19;;;24.51;32.72
35011;BME280;21205;37.378;127.098;2023-03-01T05:37:06;100337.72;;;24.49;32.68
35011;BME280;21205;37.378;127.098;2023-03-01T05:39:36;100336.50;;;24.50;32.99
35011;BME280;21205;37.378;127.098;2023-03-01T05:42:09;100331.69;;;24.51;32.68
35011;BME280;21205;37.378;127.098;2023-03-01T05:44:39;100324.88;;;24.52;32.95
35011;BME280;21205;37.378;127.098;2023-03-01T05:47:09;100346.56;;;24.51;32.89
35011;BME280;21205;37.378;127.098;2023-03-01T05:49:39;100296.56;;;24.31;32.83
35011;BME280;21205;37.378;127.098;2023-03-01T05:52:08;100328.53;;;24.56;32.75
35011;BME280;21205;37.378;127.098;2023-03-01T05:54:38;100324.91;;;24.56;32.71
35011;BME280;21205;37.378;127.098;2023-03-01T05:57:08;100320.09;;;24.56;32.69
35011;BME280;21205;37.378;127.098;2023-03-01T05:59:37;100322.09;;;24.56;32.98
35011;BME280;21205;37.378;127.098;2023-03-01T06:02:07;100327.31;;;24.57;33.17
35011;BME280;21205;37.378;127.098;2023-03-01T06:04:37;100327.72;;;24.56;32.91
35011;BME280;21205;37.378;127.098;2023-03-01T06:07:07;100329.78;;;24.62;33.01
35011;BME280;21205;37.378;127.098;2023-03-01T06:09:37;100324.94;;;24.59;33.12
35011;BME280;21205;37.378;127.098;2023-03-01T06:12:06;100324.53;;;24.61;32.84
35011;BME280;21205;37.378;127.098;2023-03-01T06:14:36;100322.59;;;24.68;32.51
35011;BME280;21205;37.378;127.098;2023-03-01T06:17:06;100325.78;;;24.67;32.68
35011;BME280;21205;37.378;127.098;2023-03-01T06:19:35;100329.44;;;24.71;32.83
35011;BME280;21205;37.378;127.098;2023-03-01T06:22:05;100337.50;;;24.72;32.62
35011;BME280;21205;37.378;127.098;2023-03-01T06:24:35;100338.78;;;24.82;32.96
35011;BME280;21205;37.378;127.098;2023-03-01T06:27:05;100332.00;;;24.90;32.97
35011;BME280;21205;37.378;127.098;2023-03-01T06:29:35;100328.88;;;24.99;32.96
35011;BME280;21205;37.378;127.098;2023-03-01T06:32:05;100340.97;;;25.03;32.72
35011;BME280;21205;37.378;127.098;2023-03-01T06:34:34;100319.72;;;25.09;32.43
35011;BME280;21205;37.378;127.098;2023-03-01T06:37:04;100298.28;;;24.94;32.32
35011;BME280;21205;37.378;127.098;2023-03-01T06:39:34;100277.00;;;24.93;32.18
35011;BME280;21205;37.378;127.098;2023-03-01T06:42:04;100332.31;;;25.29;32.26
35011;BME280;21205;37.378;127.098;2023-03-01T06:44:33;100322.25;;;25.28;32.42
35011;BME280;21205;37.378;127.098;2023-03-01T06:47:04;100322.25;;;25.32;32.34
35011;BME280;21205;37.378;127.098;2023-03-01T06:49:33;100320.75;;;25.49;32.36
35011;BME280;21205;37.378;127.098;2023-03-01T06:52:03;100328.00;;;25.53;32.34
35011;BME280;21205;37.378;127.098;2023-03-01T06:54:33;100330.44;;;25.55;32.23
35011;BME280;21205;37.378;127.098;2023-03-01T06:57:03;100318.34;;;25.47;31.85
35011;BME280;21205;37.378;127.098;2023-03-01T06:59:32;100327.97;;;25.42;32.38
35011;BME280;21205;37.378;127.098;2023-03-01T07:02:02;100331.97;;;25.41;31.88
35011;BME280;21205;37.378;127.098;2023-03-01T07:04:32;100349.69;;;25.42;31.91
35011;BME280;21205;37.378;127.098;2023-03-01T07:07:02;100337.59;;;25.38;32.14
35011;BME280;21205;37.378;127.098;2023-03-01T07:09:31;100323.41;;;25.20;32.02
35011;BME280;21205;37.378;127.098;2023-03-01T07:12:01;100344.06;;;25.42;31.85
35011;BME280;21205;37.378;127.098;2023-03-01T07:14:31;100342.44;;;25.44;31.97
35011;BME280;21205;37.378;127.098;2023-03-01T07:17:01;100361.75;;;25.42;31.78
35011;BME280;21205;37.378;127.098;2023-03-01T07:19:32;100354.91;;;25.43;32.13
35011;BME280;21205;37.378;127.098;2023-03-01T07:22:03;100353.34;;;25.50;31.91
35011;BME280;21205;37.378;127.098;2023-03-01T07:24:33;100358.59;;;25.58;32.01
35011;BME280;21205;37.378;127.098;2023-03-01T07:27:03;100352.19;;;25.65;31.36
35011;BME280;21205;37.378;127.098;2023-03-01T07:29:32;100363.94;;;25.74;31.34
35011;BME280;21205;37.378;127.098;2023-03-01T07:32:03;100326.41;;;25.56;31.57
35011;BME280;21205;37.378;127.098;2023-03-01T07:34:33;100370.81;;;25.80;31.55
35011;BME280;21205;37.378;127.098;2023-03-01T07:37:03;100322.81;;;25.66;31.33
35011;BME280;21205;37.378;127.098;2023-03-01T07:39:33;100335.38;;;25.76;31.31
35011;BME280;21205;37.378;127.098;2023-03-01T07:42:02;100359.22;;;26.03;31.36
35011;BME280;21205;37.378;127.098;2023-03-01T07:44:32;100372.13;;;26.08;31.14
35011;BME280;21205;37.378;127.098;2023-03-01T07:47:04;100358.84;;;26.15;31.30
35011;BME280;21205;37.378;127.098;2023-03-01T07:49:34;100357.66;;;26.20;30.86
35011;BME280;21205;37.378;127.098;2023-03-01T07:52:04;100359.25;;;26.21;31.62
35011;BME280;21205;37.378;127.098;2023-03-01T07:54:34;100363.34;;;26.34;31.56
35011;BME280;21205;37.378;127.098;2023-03-01T07:57:03;100365.41;;;26.44;31.19
35011;BME280;21205;37.378;127.098;2023-03-01T07:59:33;100367.81;;;26.46;31.32
35011;BME280;21205;37.378;127.098;2023-03-01T08:02:03;100312.97;;;26.08;31.24
35011;BME280;21205;37.378;127.098;2023-03-01T08:04:33;100375.47;;;26.42;31.45
35011;BME280;21205;37.378;127.098;2023-03-01T08:07:05;100385.53;;;26.43;31.38
35011;BME280;21205;37.378;127.098;2023-03-01T08:09:35;100386.34;;;26.43;31.52
35011;BME280;21205;37.378;127.098;2023-03-01T08:12:08;100373.84;;;26.44;31.31
35011;BME280;21205;37.378;127.098;2023-03-01T08:14:38;100384.72;;;26.46;31.19
35011;BME280;21205;37.378;127.098;2023-03-01T08:17:07;100385.53;;;26.46;30.98
35011;BME280;21205;37.378;127.098;2023-03-01T08:19:37;100378.28;;;26.45;31.00
35011;BME280;21205;37.378;127.098;2023-03-01T08:22:07;100402.44;;;26.46;31.11
35011;BME280;21205;37.378;127.098;2023-03-01T08:24:36;100386.34;;;26.50;30.89
35011;BME280;21205;37.378;127.098;2023-03-01T08:27:06;100385.53;;;26.50;30.76
35011;BME280;21205;37.378;127.098;2023-03-01T08:29:36;100396.00;;;26.49;30.83
35011;BME280;21205;37.378;127.098;2023-03-01T08:32:06;100400.03;;;26.48;30.71
35011;BME280;21205;37.378;127.098;2023-03-01T08:34:36;100402.44;;;26.50;30.81
35011;BME280;21205;37.378;127.098;2023-03-01T08:37:08;100412.91;;;26.46;30.68
35011;BME280;21205;37.378;127.098;2023-03-01T08:39:38;100387.16;;;26.47;30.62
35011;BME280;21205;37.378;127.098;2023-03-01T08:42:09;100390.78;;;26.44;30.54
35011;BME280;21205;37.378;127.098;2023-03-01T08:44:39;100385.53;;;26.46;30.37
35011;BME280;21205;37.378;127.098;2023-03-01T08:47:10;100357.25;;;26.21;30.79
35011;BME280;21205;37.378;127.098;2023-03-01T08:49:40;100390.38;;;26.42;30.66
35011;BME280;21205;37.378;127.098;2023-03-01T08:52:11;100398.41;;;26.40;30.69
35011;BME280;21205;37.378;127.098;2023-03-01T08:54:40;100398.41;;;26.40;30.58
35011;BME280;21205;37.378;127.098;2023-03-01T08:57:10;100395.19;;;26.38;30.22
35011;BME280;21205;37.378;127.098;2023-03-01T08:59:41;100393.16;;;26.35;30.53
35011;BME280;21205;37.378;127.098;2023-03-01T09:02:16;100405.63;;;26.34;30.21
35011;BME280;21205;37.378;127.098;2023-03-01T09:04:46;100409.22;;;26.31;30.48
35011;BME280;21205;37.378;127.098;2023-03-01T09:07:16;100420.06;;;26.25;30.31
35011;BME280;21205;37.378;127.098;2023-03-01T09:09:46;100417.66;;;26.24;30.66
35011;BME280;21205;37.378;127.098;2023-03-01T09:12:15;100432.53;;;26.21;30.64
35011;BME280;21205;37.378;127.098;2023-03-01T09:14:45;100431.31;;;26.18;30.46
35011;BME280;21205;37.378;127.098;2023-03-01T09:17:15;100444.19;;;26.16;30.62
35011;BME280;21205;37.378;127.098;2023-03-01T09:19:44;100444.19;;;26.12;30.54
35011;BME280;21205;37.378;127.098;2023-03-01T09:22:14;100447.38;;;26.07;30.42
35011;BME280;21205;37.378;127.098;2023-03-01T09:24:44;100441.75;;;26.03;30.39
35011;BME280;21205;37.378;127.098;2023-03-01T09:27:13;100456.19;;;25.98;30.69
35011;BME280;21205;37.378;127.098;2023-03-01T09:29:43;100460.19;;;25.97;31.11
35011;BME280;21205;37.378;127.098;2023-03-01T09:32:13;100469.84;;;25.96;30.87
35011;BME280;21205;37.378;127.098;2023-03-01T09:34:43;100466.22;;;25.92;31.03
35011;BME280;21205;37.378;127.098;2023-03-01T09:37:34;100471.03;;;25.88;30.82
35011;BME280;21205;37.378;127.098;2023-03-01T09:40:06;100467.00;;;25.86;30.85
35011;BME280;21205;37.378;127.098;2023-03-01T09:42:56;100487.50;;;25.83;30.85
35011;BME280;21205;37.378;127.098;2023-03-01T09:45:35;100481.84;;;25.79;30.60
35011;BME280;21205;37.378;127.098;2023-03-01T09:48:16;100495.09;;;25.75;31.27
35011;BME280;21205;37.378;127.098;2023-03-01T09:50:47;100502.28;;;25.69;31.41
35011;BME280;21205;37.378;127.098;2023-03-01T09:53:21;100503.03;;;25.66;31.03
35011;BME280;21205;37.378;127.098;2023-03-01T09:56:05;100507.84;;;25.62;30.97
35011;BME280;21205;37.378;127.098;2023-03-01T09:58:50;100523.09;;;25.61;31.39
35011;BME280;21205;37.378;127.098;2023-03-01T10:01:33;100532.75;;;25.60;31.28
35011;BME280;21205;37.378;127.098;2023-03-01T10:07:27;100531.91;;;25.52;31.09
35011;BME280;21205;37.378;127.098;2023-03-01T10:10:01;100533.06;;;25.48;31.13
35011;BME280;21205;37.378;127.098;2023-03-01T10:12:37;100537.88;;;25.43;31.44
35011;BME280;21205;37.378;127.098;2023-03-01T10:15:17;100548.28;;;25.39;31.07
35011;BME280;21205;37.378;127.098;2023-03-01T10:18:00;100549.03;;;25.36;31.36
35011;BME280;21205;37.378;127.098;2023-03-01T10:20:53;100565.19;;;25.39;31.12
35011;BME280;21205;37.378;127.098;2023-03-01T10:23:26;100545.75;;;25.27;31.67
35011;BME280;21205;37.378;127.098;2023-03-01T10:29:17;100574.38;;;25.36;31.54
35011;BME280;21205;37.378;127.098;2023-03-01T10:31:52;100547.25;;;25.14;31.43
35011;BME280;21205;37.378;127.098;2023-03-01T10:34:28;100576.69;;;25.27;31.76
35011;BME280;21205;37.378;127.098;2023-03-01T10:37:12;100553.94;;;25.02;31.40
35011;BME280;21205;37.378;127.098;2023-03-01T10:40:03;100587.13;;;25.23;31.37
35011;BME280;21205;37.378;127.098;2023-03-01T10:42:47;100582.25;;;25.20;31.62
35011;BME280;21205;37.378;127.098;2023-03-01T10:45:38;100586.69;;;25.21;31.25
35011;BME280;21205;37.378;127.098;2023-03-01T10:48:19;100594.72;;;25.19;30.94
35011;BME280;21205;37.378;127.098;2023-03-01T10:53:43;100593.09;;;25.18;31.50
35011;BME280;21205;37.378;127.098;2023-03-01T10:56:17;100603.50;;;25.14;31.50
35011;BME280;21205;37.378;127.098;2023-03-01T10:59:03;100593.81;;;25.08;31.32
35011;BME280;21205;37.378;127.098;2023-03-01T11:01:34;100610.69;;;25.08;31.33
35011;BME280;21205;37.378;127.098;2023-03-01T11:06:39;100612.63;;;25.04;31.29
35011;BME280;21205;37.378;127.098;2023-03-01T11:09:23;100621.44;;;25.02;31.61
35011;BME280;21205;37.378;127.098;2023-03-01T11:11:55;100613.41;;;25.01;31.87
35011;BME280;21205;37.378;127.098;2023-03-01T11:14:27;100626.22;;;24.98;31.63
35011;BME280;21205;37.378;127.098;2023-03-01T11:19:30;100629.78;;;24.95;31.50
35011;BME280;21205;37.378;127.098;2023-03-01T11:22:06;100629.75;;;24.92;31.82
35011;BME280;21205;37.378;127.098;2023-03-01T11:25:03;100589.94;;;24.56;32.36
35011;BME280;21205;37.378;127.098;2023-03-01T11:27:40;100646.63;;;24.92;31.91
35011;BME280;21205;37.378;127.098;2023-03-01T11:30:27;100591.56;;;24.57;31.55
35011;BME280;21205;37.378;127.098;2023-03-01T11:33:16;100635.28;;;24.85;31.96
35011;BME280;21205;37.378;127.098;2023-03-01T11:35:57;100639.25;;;24.80;31.65
35011;BME280;21205;37.378;127.098;2023-03-01T11:38:34;100637.25;;;24.80;31.86
35011;BME280;21205;37.378;127.098;2023-03-01T11:41:17;100638.41;;;24.76;31.85
35011;BME280;21205;37.378;127.098;2023-03-01T11:44:28;100648.03;;;24.75;31.51
35011;BME280;21205;37.378;127.098;2023-03-01T11:47:12;100641.59;;;24.74;31.95
35011;BME280;21205;37.378;127.098;2023-03-01T12:06:27;100667.72;;;24.48;31.85
35011;BME280;21205;37.378;127.098;2023-03-01T12:18:27;100674.88;;;24.42;32.36
35011;BME280;21205;37.378;127.098;2023-03-01T12:21:06;100673.19;;;24.38;32.26
35011;BME280;21205;37.378;127.098;2023-03-01T12:24:05;100667.13;;;24.36;31.98
35011;BME280;21205;37.378;127.098;2023-03-01T12:37:47;100685.38;;;24.23;32.21
35011;BME280;21205;37.378;127.098;2023-03-01T12:45:54;100703.31;;;24.14;32.63
35011;BME280;21205;37.378;127.098;2023-03-01T12:51:35;100705.75;;;24.16;32.44
35011;BME280;21205;37.378;127.098;2023-03-01T12:54:33;100703.69;;;24.13;32.49
35011;BME280;21205;37.378;127.098;2023-03-01T12:57:29;100700.50;;;24.14;32.78
35011;BME280;21205;37.378;127.098;2023-03-01T13:00:27;100708.50;;;24.12;32.56
35011;BME280;21205;37.378;127.098;2023-03-01T13:03:26;100689.22;;;23.88;32.85
35011;BME280;21205;37.378;127.098;2023-03-01T13:11:23;100724.09;;;24.10;32.68
35011;BME280;21205;37.378;127.098;2023-03-01T13:16:49;100717.59;;;24.06;32.59
35011;BME280;21205;37.378;127.098;2023-03-01T13:19:21;100717.25;;;24.07;32.92
35011;BME280;21205;37.378;127.098;2023-03-01T13:21:53;100725.16;;;24.02;32.76
35011;BME280;21205;37.378;127.098;2023-03-01T13:24:39;100718.72;;;24.01;33.14
35011;BME280;21205;37.378;127.098;2023-03-01T13:29:49;100690.66;;;23.78;32.99
35011;BME280;21205;37.378;127.098;2023-03-01T13:32:23;100730.38;;;24.03;32.93
35011;BME280;21205;37.378;127.098;2023-03-01T13:37:48;100733.50;;;23.98;32.56
35011;BME280;21205;37.378;127.098;2023-03-01T13:42:53;100726.28;;;23.97;33.05
35011;BME280;21205;37.378;127.098;2023-03-01T13:45:39;100732.69;;;23.98;32.81
35011;BME280;21205;37.378;127.098;2023-03-01T13:48:27;100745.50;;;23.95;32.91
35011;BME280;21205;37.378;127.098;2023-03-01T13:51:06;100735.81;;;23.93;32.94
35011;BME280;21205;37.378;127.098;2023-03-01T13:53:41;100739.81;;;23.92;32.88
35011;BME280;21205;37.378;127.098;2023-03-01T13:56:17;100741.81;;;23.91;33.06
35011;BME280;21205;37.378;127.098;2023-03-01T13:59:13;100743.44;;;23.92;32.61
35011;BME280;21205;37.378;127.098;2023-03-01T14:01:40;100748.75;;;23.97;33.11
35011;BME280;21205;37.378;127.098;2023-03-01T14:04:24;100745.50;;;23.95;32.96
35011;BME280;21205;37.378;127.098;2023-03-01T14:07:19;100754.97;;;23.87;33.16
35011;BME280;21205;37.378;127.098;2023-03-01T14:09:52;100758.97;;;23.86;33.05
35011;BME280;21205;37.378;127.098;2023-03-01T14:15:02;100760.53;;;23.83;32.98
35011;BME280;21205;37.378;127.098;2023-03-01T14:20:37;100769.28;;;23.78;33.22
35011;BME280;21205;37.378;127.098;2023-03-01T14:23:13;100771.31;;;23.81;33.25
35011;BME280;21205;37.378;127.098;2023-03-01T14:25:51;100778.94;;;23.81;33.26
35011;BME280;21205;37.378;127.098;2023-03-01T14:28:25;100766.09;;;23.80;33.07
35011;BME280;21205;37.378;127.098;2023-03-01T14:30:57;100726.16;;;23.48;32.90
35011;BME280;21205;37.378;127.098;2023-03-01T14:33:35;100764.75;;;23.74;33.75
35011;BME280;21205;37.378;127.098;2023-03-01T14:36:11;100775.25;;;23.77;33.50
35011;BME280;21205;37.378;127.098;2023-03-01T14:38:46;100765.66;;;23.78;33.81